Pagrindinis puslapis
METAR-TAF:

METAR-TAF

Oro uostai :

Japas, Mikronezija

platuma: 09-29N, ilguma: 138-05E, Aukštis: 28 m

Dabartinis oras

Ataskaita buvo paskelbta 22 minutes, ne 04:52 UTC
Vėjas 7 kt iš Vakarų/Šiaurės Vakarų
Temperatūra 29°C
Drėgmė 79%
Slėgis 1008 hPa
Matomumas: 19.3 km
Mažai debesys ne aukštis 1600 ft
Su prošvaistėmis ne aukštis 13000 ft
Apsiniaukę ne aukštis 30000 ft

METAR: PTYA 180452Z 29007KT 12SM FEW016 BKN130 OVC300 29/25 A2976 RMK SLP078 T02870251

Laikas: 15:14 (05:14 UTC)

Prognozė

Ataskaita buvo paskelbta 1 valandą ir 37 minutes, ne 03:37 UTC
Prognozė galioja nuo 18 metu 04 UTC su 18 metu 24 UTC
Vėjas 11 kt iš Vakarų
Matomumas: 10 km
Išsisklaidę debesys ne aukštis 1600 ft
Su prošvaistėmis ne aukštis 13000 ft
Liūtis kaimynystėje

TAF: PTYA 180337Z 1804/1824 28011KT P6SM VCSH SCT016 BKN130

Orai ataskaitas ir orų prognozės (METAR, TAF).

turimą stotys yra geltonos ir raudonos taškus žemėlapyje.

Perkelti pele per norėdami pamatyti stoties vardą.

Tada spustelėkite, norėdami matyti oro stebėjimo ir prognozės.

Norėdami pakeisti žemėlapį: spustelėkite ant žalios mygtukų su juodo kryžiaus žemyn,; žalią mygtuką su brūkšneliu, jei norite nutolinti; arba žalių rodyklių gretimoms žemėlapius.


METAR-TAF: